createdAt,value
2019-02-17T00:02:05.188Z,99.90
2019-02-17T00:04:32.219Z,99.90
2019-02-17T00:06:58.934Z,99.90
2019-02-17T00:09:25.915Z,99.90
2019-02-17T00:11:52.792Z,99.90
2019-02-17T00:14:19.527Z,99.90
2019-02-17T00:16:46.360Z,99.90
2019-02-17T00:19:13.506Z,99.90
2019-02-17T00:21:40.208Z,99.90
2019-02-17T00:24:07.159Z,99.90
2019-02-17T00:26:33.883Z,99.90
2019-02-17T00:29:00.747Z,99.90
2019-02-17T00:31:27.558Z,99.90
2019-02-17T00:33:54.288Z,99.90
2019-02-17T00:36:21.050Z,99.90
2019-02-17T00:38:47.820Z,99.90
2019-02-17T00:41:14.555Z,99.90
2019-02-17T00:43:41.347Z,99.90
2019-02-17T00:46:08.113Z,99.90
2019-02-17T00:48:35.060Z,99.90
2019-02-17T00:51:01.949Z,99.90
2019-02-17T00:53:28.831Z,99.90
2019-02-17T00:55:55.571Z,99.90
2019-02-17T00:58:22.308Z,99.90
2019-02-17T01:00:49.218Z,99.90
2019-02-17T01:03:15.975Z,99.90
2019-02-17T01:05:50.307Z,99.90
2019-02-17T01:08:17.097Z,99.90
2019-02-17T01:10:43.987Z,99.90
2019-02-17T01:13:10.731Z,99.90
2019-02-17T01:15:40.836Z,99.90
2019-02-17T01:18:07.913Z,99.90
2019-02-17T01:20:34.899Z,99.90
2019-02-17T01:23:01.680Z,99.90
2019-02-17T01:25:31.297Z,99.90
2019-02-17T01:27:58.300Z,99.90
2019-02-17T01:30:25.155Z,99.90
2019-02-17T01:32:52.054Z,99.90
2019-02-17T01:35:18.888Z,99.90
2019-02-17T01:37:45.749Z,99.90
2019-02-17T01:40:14.117Z,99.90
2019-02-17T01:42:48.757Z,99.90
2019-02-17T01:45:18.384Z,99.90
2019-02-17T01:47:48.255Z,99.90
2019-02-17T01:50:15.250Z,99.90
2019-02-17T01:52:42.343Z,99.90
2019-02-17T01:55:09.317Z,99.90
2019-02-17T01:57:36.204Z,99.90
2019-02-17T02:00:03.923Z,99.90
2019-02-17T02:02:30.695Z,99.90
2019-02-17T02:04:57.594Z,99.90
2019-02-17T02:07:24.563Z,99.90
2019-02-17T02:09:51.534Z,99.90
2019-02-17T02:12:18.395Z,99.90
2019-02-17T02:14:45.281Z,99.90
2019-02-17T02:17:12.023Z,99.90
2019-02-17T02:19:39.044Z,99.90
2019-02-17T02:22:05.999Z,99.90
2019-02-17T02:24:32.875Z,99.90
2019-02-17T02:27:04.607Z,99.90
2019-02-17T02:29:40.936Z,99.90
2019-02-17T02:32:07.529Z,99.90
2019-02-17T02:34:37.728Z,99.90
2019-02-17T02:37:07.530Z,99.90
2019-02-17T02:39:39.758Z,99.90
2019-02-17T02:42:06.519Z,99.90
2019-02-17T02:44:38.019Z,99.90
2019-02-17T02:47:07.370Z,99.90
2019-02-17T02:49:34.759Z,99.90
2019-02-17T02:52:05.772Z,99.90
2019-02-17T02:54:40.801Z,99.90
2019-02-17T02:57:07.751Z,99.90
2019-02-17T02:59:34.515Z,99.90
2019-02-17T03:02:03.942Z,99.90
2019-02-17T03:04:30.808Z,99.90
2019-02-17T03:07:00.210Z,99.90
2019-02-17T03:09:27.061Z,99.90
2019-02-17T03:11:53.934Z,99.90
2019-02-17T03:14:20.691Z,99.90
2019-02-17T03:16:47.451Z,99.90
2019-02-17T03:19:14.411Z,99.90
2019-02-17T03:21:41.282Z,99.90
2019-02-17T03:24:08.120Z,99.90
2019-02-17T03:26:34.870Z,99.90
2019-02-17T03:29:01.691Z,99.90
2019-02-17T03:31:28.457Z,99.90
2019-02-17T03:33:55.370Z,99.90
2019-02-17T03:36:22.435Z,99.90
2019-02-17T03:38:49.155Z,99.90
2019-02-17T03:41:16.144Z,99.90
2019-02-17T03:43:42.876Z,99.90
2019-02-17T03:46:09.933Z,99.90
2019-02-17T03:48:36.795Z,99.90
2019-02-17T03:51:03.639Z,99.90
2019-02-17T03:53:30.444Z,99.90
2019-02-17T03:55:57.308Z,99.90
2019-02-17T03:58:24.196Z,99.90
2019-02-17T04:00:54.368Z,99.90
2019-02-17T04:03:22.070Z,99.90
2019-02-17T04:05:49.079Z,99.90
2019-02-17T04:08:16.061Z,99.90
2019-02-17T04:10:42.872Z,99.90
2019-02-17T04:13:09.735Z,99.90
2019-02-17T04:15:36.949Z,99.90
2019-02-17T04:18:03.813Z,99.90
2019-02-17T04:20:30.558Z,99.90
2019-02-17T04:22:57.410Z,99.90
2019-02-17T04:25:24.158Z,99.90
2019-02-17T04:27:50.940Z,99.90
2019-02-17T04:30:28.751Z,99.90
2019-02-17T04:32:46.637Z,99.90
2019-02-17T04:35:13.545Z,99.90
2019-02-17T04:37:40.438Z,99.90
2019-02-17T04:40:07.383Z,99.90
2019-02-17T04:42:34.293Z,99.90
2019-02-17T04:45:01.016Z,99.90
2019-02-17T04:47:27.754Z,99.90
2019-02-17T04:49:54.601Z,99.90
2019-02-17T04:52:21.359Z,99.90
2019-02-17T04:54:48.095Z,99.90
2019-02-17T04:57:14.838Z,99.90
2019-02-17T04:59:41.715Z,99.90
2019-02-17T05:02:08.471Z,99.90
2019-02-17T05:04:35.343Z,99.90
2019-02-17T05:07:02.200Z,99.90
2019-02-17T05:09:29.064Z,99.90
2019-02-17T05:11:55.802Z,99.90
2019-02-17T05:14:22.560Z,99.90
2019-02-17T05:16:49.353Z,99.90
2019-02-17T05:19:16.187Z,99.90
2019-02-17T05:21:42.904Z,99.90
2019-02-17T05:24:09.767Z,99.90
2019-02-17T05:26:36.911Z,99.90
2019-02-17T05:29:03.643Z,99.90
2019-02-17T05:31:30.475Z,99.90
2019-02-17T05:33:57.477Z,99.90
2019-02-17T05:36:24.190Z,99.90
2019-02-17T05:38:50.919Z,99.90
2019-02-17T05:41:17.688Z,99.90
2019-02-17T05:43:44.585Z,99.90
2019-02-17T05:46:11.403Z,99.90
2019-02-17T05:48:38.135Z,99.90
2019-02-17T05:51:05.126Z,99.90
2019-02-17T05:53:31.865Z,99.90
2019-02-17T05:56:00.606Z,99.90
2019-02-17T05:58:29.543Z,99.90
2019-02-17T06:01:03.942Z,99.90
2019-02-17T06:03:25.652Z,99.90
2019-02-17T06:05:52.511Z,99.90
2019-02-17T06:08:19.399Z,99.90
2019-02-17T06:10:46.536Z,99.90
2019-02-17T06:13:13.528Z,99.90
2019-02-17T06:15:43.023Z,99.90
2019-02-17T06:18:10.043Z,99.90
2019-02-17T06:20:38.783Z,99.90
2019-02-17T06:23:06.199Z,99.90
2019-02-17T06:25:33.055Z,99.90
2019-02-17T06:27:59.924Z,99.90
2019-02-17T06:30:26.716Z,99.90
2019-02-17T06:32:53.679Z,99.90
2019-02-17T06:35:20.452Z,99.90
2019-02-17T06:37:47.328Z,99.90
2019-02-17T06:40:14.309Z,99.90
2019-02-17T06:42:41.306Z,99.90
2019-02-17T06:45:08.814Z,99.90
2019-02-17T06:47:35.555Z,99.90
2019-02-17T06:50:02.871Z,99.90
2019-02-17T06:52:29.759Z,99.90
2019-02-17T06:55:22.071Z,99.90
2019-02-17T06:57:49.061Z,99.90
2019-02-17T07:00:29.502Z,99.90
2019-02-17T07:02:56.347Z,99.90
2019-02-17T07:05:29.635Z,99.90
2019-02-17T07:07:56.625Z,99.90
2019-02-17T07:10:23.343Z,99.90
2019-02-17T07:12:50.139Z,99.90
2019-02-17T07:15:17.043Z,99.90
2019-02-17T07:17:43.827Z,99.90
2019-02-17T07:20:10.795Z,99.90
2019-02-17T07:22:37.524Z,99.90
2019-02-17T07:25:04.399Z,99.90
2019-02-17T07:27:31.147Z,99.90
2019-02-17T07:29:58.011Z,99.90
2019-02-17T07:32:24.890Z,99.90
2019-02-17T07:34:51.772Z,99.90
2019-02-17T07:37:19.422Z,99.90
2019-02-17T07:39:46.369Z,99.90
2019-02-17T07:42:13.487Z,99.40
2019-02-17T07:44:40.551Z,98.80
2019-02-17T07:47:07.571Z,98.40
2019-02-17T07:49:34.309Z,98.20
2019-02-17T07:52:01.107Z,98.20
2019-02-17T07:54:27.959Z,98.00
2019-02-17T07:56:54.895Z,98.20
2019-02-17T07:59:21.723Z,98.60
2019-02-17T08:01:48.631Z,99.00
2019-02-17T08:04:15.562Z,99.60
2019-02-17T08:06:42.567Z,99.90
2019-02-17T08:09:09.294Z,99.90
2019-02-17T08:11:36.031Z,99.90
2019-02-17T08:14:03.019Z,99.90
2019-02-17T08:16:29.918Z,99.90
2019-02-17T08:18:56.799Z,99.90
2019-02-17T08:21:23.814Z,99.90
2019-02-17T08:23:50.511Z,99.90
2019-02-17T08:26:17.375Z,99.90
2019-02-17T08:28:44.204Z,99.90
2019-02-17T08:31:10.971Z,99.90
2019-02-17T08:33:37.737Z,99.90
2019-02-17T08:36:04.624Z,99.90
2019-02-17T08:38:31.415Z,99.90
2019-02-17T08:41:00.712Z,99.90
2019-02-17T08:43:27.026Z,99.90
2019-02-17T08:45:53.779Z,99.90
2019-02-17T08:48:20.543Z,99.90
2019-02-17T08:50:47.552Z,99.90
2019-02-17T08:53:14.324Z,99.90
2019-02-17T08:55:41.047Z,99.90
2019-02-17T08:58:07.787Z,99.90
2019-02-17T09:00:34.515Z,99.90
2019-02-17T09:03:01.567Z,99.90
2019-02-17T09:05:28.523Z,99.90
2019-02-17T09:07:55.286Z,99.90
2019-02-17T09:10:22.043Z,99.90
2019-02-17T09:12:48.832Z,99.90
2019-02-17T09:15:15.882Z,99.90
2019-02-17T09:17:42.879Z,99.90
2019-02-17T09:20:10.297Z,99.90
2019-02-17T09:22:37.152Z,99.90
2019-02-17T09:25:04.931Z,99.90
2019-02-17T09:27:31.732Z,99.90
2019-02-17T09:29:58.539Z,99.90
2019-02-17T09:32:25.425Z,99.90
2019-02-17T09:34:52.159Z,99.90
2019-02-17T09:37:19.126Z,99.90
2019-02-17T09:39:45.987Z,99.90
2019-02-17T09:42:12.867Z,99.90
2019-02-17T09:44:39.719Z,99.90
2019-02-17T09:47:06.580Z,99.90
2019-02-17T09:49:33.342Z,99.90
2019-02-17T09:52:00.315Z,99.80
2019-02-17T09:54:27.059Z,99.80
2019-02-17T09:56:55.316Z,99.20
2019-02-17T09:59:22.202Z,98.50
2019-02-17T10:01:50.526Z,97.80
2019-02-17T10:04:17.271Z,96.70
2019-02-17T10:06:44.248Z,95.40
2019-02-17T10:09:11.127Z,94.50
2019-02-17T10:11:37.827Z,93.10
2019-02-17T10:14:04.787Z,92.40
2019-02-17T10:16:31.526Z,91.40
2019-02-17T10:18:58.273Z,90.50
2019-02-17T10:21:26.091Z,89.40
2019-02-17T10:23:52.843Z,89.80
2019-02-17T10:26:19.706Z,90.10
2019-02-17T10:28:46.453Z,89.30
2019-02-17T10:31:13.407Z,90.00
2019-02-17T10:33:40.137Z,90.80
2019-02-17T10:36:07.100Z,91.20
2019-02-17T10:38:33.966Z,91.80
2019-02-17T10:41:00.807Z,92.40
2019-02-17T10:43:27.875Z,92.90
2019-02-17T10:45:54.647Z,93.40
2019-02-17T10:48:21.603Z,93.20
2019-02-17T10:50:48.340Z,93.00
2019-02-17T10:53:15.351Z,91.90
2019-02-17T10:55:42.243Z,91.40
2019-02-17T10:58:08.983Z,90.80
2019-02-17T11:00:36.146Z,90.40
2019-02-17T11:03:06.975Z,90.20
2019-02-17T11:05:33.954Z,88.00
2019-02-17T11:08:00.922Z,87.40
2019-02-17T11:10:27.859Z,85.20
2019-02-17T11:12:54.619Z,82.50
2019-02-17T11:15:21.504Z,80.60
2019-02-17T11:17:48.361Z,77.00
2019-02-17T11:20:15.379Z,74.30
2019-02-17T11:22:42.418Z,67.00
2019-02-17T11:25:09.428Z,61.30
2019-02-17T11:27:36.406Z,57.20
2019-02-17T11:30:05.503Z,58.40
2019-02-17T11:32:32.539Z,56.40
2019-02-17T11:34:59.496Z,56.40
2019-02-17T11:37:26.287Z,54.60
2019-02-17T11:39:53.067Z,54.40
2019-02-17T11:42:20.031Z,52.00
2019-02-17T11:44:47.044Z,51.80
2019-02-17T11:47:14.083Z,53.10
2019-02-17T11:49:40.895Z,53.50
2019-02-17T11:52:07.786Z,53.30
2019-02-17T11:54:34.683Z,53.00
2019-02-17T11:57:01.599Z,53.40
2019-02-17T11:59:28.355Z,51.50
2019-02-17T12:01:55.336Z,51.50
2019-02-17T12:04:22.259Z,49.70
2019-02-17T12:06:49.204Z,50.90
2019-02-17T12:09:16.094Z,50.30
2019-02-17T12:11:42.835Z,50.80
2019-02-17T12:14:09.699Z,51.30
2019-02-17T12:16:37.319Z,52.10
2019-02-17T12:19:04.359Z,52.80
2019-02-17T12:21:41.935Z,51.40
2019-02-17T12:24:13.591Z,51.00
2019-02-17T12:26:51.178Z,51.20
2019-02-17T12:29:31.363Z,48.90
2019-02-17T12:31:58.252Z,46.10
2019-02-17T12:34:25.205Z,44.80
2019-02-17T12:36:51.935Z,45.00
2019-02-17T12:39:18.664Z,44.20
2019-02-17T12:41:45.615Z,46.40
2019-02-17T12:44:12.459Z,49.10
2019-02-17T12:46:39.341Z,47.80
2019-02-17T12:49:06.154Z,47.50
2019-02-17T12:51:32.979Z,47.70
2019-02-17T12:53:59.811Z,47.50
2019-02-17T12:56:26.590Z,47.10
2019-02-17T12:58:53.335Z,47.50
2019-02-17T13:01:20.043Z,47.80
2019-02-17T13:03:47.015Z,46.90
2019-02-17T13:06:13.854Z,47.20
2019-02-17T13:08:40.643Z,47.10
2019-02-17T13:11:07.510Z,48.40
2019-02-17T13:13:34.264Z,49.60
2019-02-17T13:16:01.085Z,48.80
2019-02-17T13:18:27.809Z,49.70
2019-02-17T13:20:54.679Z,48.10
2019-02-17T13:23:21.543Z,47.60
2019-02-17T13:25:48.427Z,47.10
2019-02-17T13:28:15.318Z,46.80
2019-02-17T13:30:42.043Z,46.60
2019-02-17T13:33:09.466Z,47.90
2019-02-17T13:35:36.359Z,49.40
2019-02-17T13:38:03.107Z,50.10
2019-02-17T13:40:29.907Z,51.10
2019-02-17T13:42:56.808Z,52.10
2019-02-17T13:45:23.638Z,51.50
2019-02-17T13:47:50.534Z,50.40
2019-02-17T13:50:17.387Z,50.20
2019-02-17T13:52:44.403Z,49.90
2019-02-17T13:55:11.379Z,50.30
2019-02-17T13:57:38.359Z,50.40
2019-02-17T14:00:08.435Z,51.60
2019-02-17T14:02:35.201Z,50.80
2019-02-17T14:05:02.087Z,52.60
2019-02-17T14:07:29.071Z,53.10
2019-02-17T14:09:55.867Z,53.30
2019-02-17T14:12:22.599Z,53.30
2019-02-17T14:14:49.503Z,55.60
2019-02-17T14:17:16.363Z,58.70
2019-02-17T14:19:43.117Z,59.10
2019-02-17T14:22:09.871Z,60.60
2019-02-17T14:24:36.611Z,63.30
2019-02-17T14:27:03.600Z,65.90
2019-02-17T14:29:30.459Z,68.60
2019-02-17T14:31:57.311Z,70.80
2019-02-17T14:34:24.012Z,70.00
2019-02-17T14:36:50.755Z,70.60
2019-02-17T14:39:17.803Z,70.60
2019-02-17T14:41:44.582Z,72.90
2019-02-17T14:44:11.348Z,71.00
2019-02-17T14:46:38.335Z,71.70
2019-02-17T14:49:05.223Z,71.10
2019-02-17T14:51:31.984Z,72.00
2019-02-17T14:53:58.731Z,71.50
2019-02-17T14:56:25.512Z,72.00
2019-02-17T14:58:52.427Z,72.40
2019-02-17T15:01:19.175Z,71.50
2019-02-17T15:03:45.936Z,74.00
2019-02-17T15:06:12.905Z,71.90
2019-02-17T15:08:39.857Z,73.60
2019-02-17T15:11:06.883Z,72.50
2019-02-17T15:13:33.811Z,71.90
2019-02-17T15:16:00.651Z,73.00
2019-02-17T15:18:27.419Z,73.30
2019-02-17T15:20:54.288Z,72.90
2019-02-17T15:23:21.311Z,73.60
2019-02-17T15:25:48.197Z,74.10
2019-02-17T15:28:15.214Z,73.90
2019-02-17T15:30:42.000Z,73.40
2019-02-17T15:33:08.925Z,74.40
2019-02-17T15:35:35.771Z,75.00
2019-02-17T15:38:02.621Z,74.00
2019-02-17T15:40:32.251Z,73.00
2019-02-17T15:42:59.143Z,73.00
2019-02-17T15:45:25.919Z,72.40
2019-02-17T15:47:52.698Z,72.20
2019-02-17T15:50:19.607Z,72.40
2019-02-17T15:52:46.488Z,73.00
2019-02-17T15:55:13.445Z,72.60
2019-02-17T15:57:40.411Z,72.90
2019-02-17T16:00:09.847Z,73.40
2019-02-17T16:02:36.586Z,73.60
2019-02-17T16:05:03.699Z,72.80
2019-02-17T16:07:30.527Z,73.70
2019-02-17T16:09:57.331Z,74.10
2019-02-17T16:12:24.337Z,74.30
2019-02-17T16:14:51.063Z,75.40
2019-02-17T16:17:17.804Z,76.50
2019-02-17T16:19:44.703Z,76.30
2019-02-17T16:22:11.614Z,76.80
2019-02-17T16:24:38.466Z,77.60
2019-02-17T16:27:05.492Z,77.50
2019-02-17T16:29:32.396Z,78.90
2019-02-17T16:31:59.127Z,78.90
2019-02-17T16:34:37.786Z,79.50
2019-02-17T16:36:56.883Z,79.90
2019-02-17T16:39:23.764Z,81.70
2019-02-17T16:41:50.895Z,81.30
2019-02-17T16:44:17.978Z,82.80
2019-02-17T16:46:44.884Z,83.30
2019-02-17T16:49:11.987Z,86.40
2019-02-17T16:51:38.788Z,87.60
2019-02-17T16:54:05.583Z,88.90
2019-02-17T16:56:32.572Z,89.70
2019-02-17T16:58:59.319Z,90.30
2019-02-17T17:01:26.327Z,90.90
2019-02-17T17:03:53.199Z,91.40
2019-02-17T17:06:20.071Z,91.70
2019-02-17T17:08:46.823Z,92.30
2019-02-17T17:11:13.856Z,92.70
2019-02-17T17:13:40.909Z,93.00
2019-02-17T17:16:07.879Z,93.40
2019-02-17T17:18:34.679Z,93.60
2019-02-17T17:21:01.499Z,94.10
2019-02-17T17:23:28.323Z,94.40
2019-02-17T17:25:55.307Z,94.80
2019-02-17T17:28:22.203Z,95.20
2019-02-17T17:30:48.967Z,95.50
2019-02-17T17:33:16.027Z,95.70
2019-02-17T17:35:42.946Z,95.80
2019-02-17T17:38:09.683Z,96.10
2019-02-17T17:40:36.449Z,96.20
2019-02-17T17:43:03.311Z,96.40
2019-02-17T17:45:30.083Z,96.50
2019-02-17T17:47:56.953Z,96.70
2019-02-17T17:50:23.686Z,96.80
2019-02-17T17:52:50.468Z,96.90
2019-02-17T17:55:17.243Z,97.00
2019-02-17T17:57:44.001Z,97.20
2019-02-17T18:00:12.962Z,97.30
2019-02-17T18:02:39.905Z,97.40
2019-02-17T18:05:09.546Z,97.60
2019-02-17T18:07:35.861Z,97.70
2019-02-17T18:10:03.147Z,97.90
2019-02-17T18:12:29.892Z,98.00
2019-02-17T18:14:56.806Z,98.20
2019-02-17T18:17:23.787Z,98.30
2019-02-17T18:19:50.775Z,98.30
2019-02-17T18:22:17.759Z,98.40
2019-02-17T18:24:44.663Z,98.50
2019-02-17T18:27:11.451Z,98.60
2019-02-17T18:29:38.363Z,98.60
2019-02-17T18:32:05.211Z,98.70
2019-02-17T18:34:32.066Z,98.80
2019-02-17T18:36:59.064Z,98.80
2019-02-17T18:39:25.951Z,98.90
2019-02-17T18:41:52.830Z,99.00
2019-02-17T18:44:19.648Z,98.90
2019-02-17T18:46:46.571Z,98.90
2019-02-17T18:49:13.340Z,98.90
2019-02-17T18:51:41.708Z,99.00
2019-02-17T18:54:08.718Z,99.00
2019-02-17T18:56:35.731Z,99.20
2019-02-17T18:59:02.640Z,99.30
2019-02-17T19:01:29.516Z,99.40
2019-02-17T19:03:56.543Z,99.40
2019-02-17T19:06:23.566Z,99.50
2019-02-17T19:08:50.556Z,99.60
2019-02-17T19:11:17.530Z,99.80
2019-02-17T19:13:44.406Z,99.80
2019-02-17T19:16:11.616Z,99.80
2019-02-17T19:18:38.444Z,99.90
2019-02-17T19:21:05.351Z,99.90
2019-02-17T19:23:32.246Z,99.90
2019-02-17T19:25:59.056Z,99.90
2019-02-17T19:28:25.843Z,99.90
2019-02-17T19:30:52.616Z,99.90
2019-02-17T19:33:19.619Z,99.90
2019-02-17T19:35:47.295Z,99.90
2019-02-17T19:38:14.323Z,99.90
2019-02-17T19:40:41.530Z,99.90
2019-02-17T19:43:08.287Z,99.90
2019-02-17T19:45:35.231Z,99.90
2019-02-17T19:48:02.339Z,99.90
2019-02-17T19:50:29.285Z,99.90
2019-02-17T19:52:56.184Z,99.90
2019-02-17T19:55:23.211Z,99.90
2019-02-17T19:57:50.104Z,99.90
2019-02-17T20:00:17.690Z,99.90
2019-02-17T20:02:54.562Z,99.90
2019-02-17T20:05:24.144Z,99.90
2019-02-17T20:07:52.962Z,99.90
2019-02-17T20:10:20.237Z,99.90
2019-02-17T20:12:47.419Z,99.90
2019-02-17T20:15:14.384Z,99.90
2019-02-17T20:17:41.589Z,99.90
2019-02-17T20:20:08.549Z,99.90
2019-02-17T20:22:35.736Z,99.90
2019-02-17T20:25:03.005Z,99.90
2019-02-17T20:27:29.801Z,99.90
2019-02-17T20:29:56.884Z,99.90
2019-02-17T20:32:23.867Z,99.90
2019-02-17T20:34:50.923Z,99.90
2019-02-17T20:37:17.882Z,99.90
2019-02-17T20:39:45.376Z,99.90
2019-02-17T20:42:13.885Z,99.90
2019-02-17T20:44:41.648Z,99.90
2019-02-17T20:47:10.064Z,99.90
2019-02-17T20:49:37.164Z,99.90
2019-02-17T20:52:04.191Z,99.90
2019-02-17T20:54:31.551Z,99.90
2019-02-17T20:56:58.563Z,99.90
2019-02-17T20:59:25.360Z,99.90
2019-02-17T21:01:52.832Z,99.90
2019-02-17T21:04:19.705Z,99.90
2019-02-17T21:06:46.591Z,99.90
2019-02-17T21:09:13.663Z,99.90
2019-02-17T21:11:40.607Z,99.90
2019-02-17T21:14:07.579Z,99.90
2019-02-17T21:16:34.645Z,99.90
2019-02-17T21:19:01.407Z,99.90
2019-02-17T21:21:28.444Z,99.90
2019-02-17T21:23:55.372Z,99.90
2019-02-17T21:26:26.281Z,99.90
2019-02-17T21:28:50.851Z,99.90
2019-02-17T21:31:17.681Z,99.90
2019-02-17T21:33:44.586Z,99.90
2019-02-17T21:36:11.491Z,99.90
2019-02-17T21:38:38.231Z,99.90
2019-02-17T21:41:09.414Z,99.90
2019-02-17T21:43:33.772Z,99.90
2019-02-17T21:46:00.656Z,99.90
2019-02-17T21:48:27.535Z,99.90
2019-02-17T21:50:54.398Z,99.90
2019-02-17T21:53:21.251Z,99.90
2019-02-17T21:55:48.215Z,99.90
2019-02-17T21:58:16.387Z,99.90
2019-02-17T22:00:47.694Z,99.90
2019-02-17T22:03:16.300Z,99.90
2019-02-17T22:05:45.931Z,99.90
2019-02-17T22:08:17.060Z,99.90
2019-02-17T22:10:51.378Z,99.90
2019-02-17T22:13:21.748Z,99.90
2019-02-17T22:15:49.193Z,99.90
2019-02-17T22:18:16.225Z,99.90
2019-02-17T22:20:43.108Z,99.90
2019-02-17T22:23:09.915Z,99.90
2019-02-17T22:25:36.915Z,99.90
2019-02-17T22:28:03.782Z,99.90
2019-02-17T22:30:30.509Z,99.90
2019-02-17T22:32:57.403Z,99.90
2019-02-17T22:35:24.119Z,99.90
2019-02-17T22:37:51.043Z,99.90
2019-02-17T22:40:18.098Z,99.90
2019-02-17T22:42:46.498Z,99.90
2019-02-17T22:45:13.863Z,99.90
2019-02-17T22:47:40.931Z,99.90
2019-02-17T22:50:08.226Z,99.90
2019-02-17T22:52:34.999Z,99.90
2019-02-17T22:55:01.998Z,99.90
2019-02-17T22:57:28.765Z,99.90
2019-02-17T22:59:55.860Z,99.90
2019-02-17T23:02:23.322Z,99.90
2019-02-17T23:04:50.192Z,99.90
2019-02-17T23:07:17.280Z,99.90
2019-02-17T23:09:44.147Z,99.90
2019-02-17T23:12:10.884Z,99.90
2019-02-17T23:14:37.778Z,99.90
2019-02-17T23:17:04.762Z,99.90
2019-02-17T23:19:31.632Z,99.90
2019-02-17T23:21:58.457Z,99.90
2019-02-17T23:24:25.854Z,99.90
2019-02-17T23:26:52.583Z,99.90
2019-02-17T23:29:19.514Z,99.90
2019-02-17T23:31:46.279Z,99.90
2019-02-17T23:34:13.192Z,99.90
2019-02-17T23:36:40.060Z,99.90
2019-02-17T23:39:07.047Z,99.90
2019-02-17T23:41:33.867Z,99.90
2019-02-17T23:44:05.384Z,99.90
2019-02-17T23:46:32.534Z,99.90
2019-02-17T23:48:59.379Z,99.90
2019-02-17T23:51:26.283Z,99.90
2019-02-17T23:53:53.007Z,99.90
2019-02-17T23:56:19.995Z,99.90
2019-02-17T23:58:46.727Z,99.90
